createdAt,value
2022-11-20T00:02:11.797Z,100021.25
2022-11-20T00:07:13.589Z,100027.63
2022-11-20T00:12:15.364Z,100018.63
2022-11-20T00:17:17.050Z,100012.16
2022-11-20T00:22:18.603Z,100005.06
2022-11-20T00:27:20.511Z,100014.13
2022-11-20T00:32:22.183Z,100005.31
2022-11-20T00:37:23.754Z,100022.34
2022-11-20T00:42:25.359Z,100024.44
2022-11-20T00:47:27.571Z,100031.31
2022-11-20T00:52:29.238Z,100032.59
2022-11-20T00:57:30.993Z,100034.66
2022-11-20T01:02:32.771Z,100034.66
2022-11-20T01:07:34.599Z,100032.03
2022-11-20T01:12:36.469Z,100033.81
2022-11-20T01:17:38.088Z,100038.22
2022-11-20T01:22:40.329Z,100029.84
2022-11-20T01:27:42.004Z,100026.34
2022-11-20T01:32:43.532Z,100024.75
2022-11-20T01:37:45.188Z,100028.31
2022-11-20T01:43:13.464Z,100016.06
2022-11-20T01:48:15.831Z,100015.22
2022-11-20T01:53:20.011Z,100017.84
2022-11-20T01:58:24.591Z,100009.41
2022-11-20T02:03:27.282Z,100002.69
2022-11-20T02:08:29.349Z,100002.63
2022-11-20T02:13:46.398Z,100006.06
2022-11-20T02:18:48.558Z,99997.59
2022-11-20T02:24:08.823Z,99994.69
2022-11-20T02:29:10.837Z,99991.25
2022-11-20T02:34:12.594Z,99988.44
2022-11-20T02:39:14.601Z,99988.56
2022-11-20T02:44:16.351Z,99988.56
2022-11-20T02:49:18.212Z,99984.78
2022-11-20T02:54:19.946Z,99986.34
2022-11-20T02:59:21.741Z,99987.09
2022-11-20T03:04:23.703Z,99989.84
2022-11-20T03:09:25.390Z,99985.63
2022-11-20T03:14:27.104Z,99979.50
2022-11-20T03:19:28.923Z,99982.69
2022-11-20T03:24:30.442Z,99975.03
2022-11-20T03:29:32.221Z,99972.66
2022-11-20T03:34:33.895Z,99962.94
2022-11-20T03:39:35.465Z,99963.66
2022-11-20T03:44:37.141Z,99963.84
2022-11-20T03:49:38.791Z,99964.84
2022-11-20T03:54:40.489Z,99974.13
2022-11-20T03:59:42.155Z,99982.47
2022-11-20T04:04:43.671Z,99975.50
2022-11-20T04:09:45.366Z,99969.22
2022-11-20T04:14:47.228Z,99959.91
2022-11-20T04:19:51.411Z,99961.81
2022-11-20T04:24:53.109Z,99949.47
2022-11-20T04:29:55.091Z,99952.59
2022-11-20T04:34:56.769Z,99942.31
2022-11-20T04:39:58.547Z,99939.13
2022-11-20T04:45:00.206Z,99929.03
2022-11-20T04:50:01.925Z,99926.69
2022-11-20T04:55:04.179Z,99934.00
2022-11-20T05:00:06.558Z,99941.31
2022-11-20T05:05:08.763Z,99939.81
2022-11-20T05:10:10.421Z,99947.66
2022-11-20T05:15:12.065Z,99950.84
2022-11-20T05:20:13.948Z,99939.53
2022-11-20T05:25:15.728Z,99945.63
2022-11-20T05:30:17.520Z,99938.78
2022-11-20T05:35:19.181Z,99938.84
2022-11-20T05:40:20.836Z,99938.19
2022-11-20T05:45:22.533Z,99922.25
2022-11-20T05:50:24.120Z,99934.69
2022-11-20T05:55:25.805Z,99925.38
2022-11-20T06:00:27.486Z,99917.22
2022-11-20T06:05:29.289Z,99936.63
2022-11-20T06:10:30.823Z,99918.44
2022-11-20T06:15:32.543Z,99918.78
2022-11-20T06:20:39.246Z,99917.00
2022-11-20T06:25:43.992Z,99908.03
2022-11-20T06:30:46.237Z,99911.41
2022-11-20T06:35:48.193Z,99905.53
2022-11-20T06:40:49.734Z,99915.34
2022-11-20T06:45:54.929Z,99909.25
2022-11-20T06:50:57.301Z,99907.34
2022-11-20T06:56:00.531Z,99904.44
2022-11-20T07:01:04.558Z,99898.16
2022-11-20T07:06:06.999Z,99898.72
2022-11-20T07:11:09.381Z,99901.75
2022-11-20T07:16:11.208Z,99891.69
2022-11-20T07:21:12.876Z,99908.91
2022-11-20T07:26:14.583Z,99891.13
2022-11-20T07:31:19.387Z,99896.06
2022-11-20T07:36:21.368Z,99891.41
2022-11-20T07:41:23.120Z,99893.81
2022-11-20T07:46:24.771Z,99887.38
2022-11-20T07:51:27.023Z,99886.22
2022-11-20T07:56:28.722Z,99887.47
2022-11-20T08:01:30.507Z,99885.38
2022-11-20T08:06:32.220Z,99872.38
2022-11-20T08:11:52.559Z,99876.13
2022-11-20T08:16:54.351Z,99880.13
2022-11-20T08:21:56.569Z,99875.81
2022-11-20T08:27:00.115Z,99874.38
2022-11-20T08:32:01.817Z,99872.19
2022-11-20T08:37:04.116Z,99872.47
2022-11-20T08:42:09.241Z,99880.66
2022-11-20T08:47:10.948Z,99876.41
2022-11-20T08:52:12.623Z,99862.41
2022-11-20T08:57:14.265Z,99852.97
2022-11-20T09:02:16.365Z,99842.59
2022-11-20T09:07:18.112Z,99826.28
2022-11-20T09:12:19.984Z,99830.84
2022-11-20T09:17:21.697Z,99823.16
2022-11-20T09:22:23.346Z,99816.47
2022-11-20T09:27:25.118Z,99823.06
2022-11-20T09:32:26.909Z,99816.31
2022-11-20T09:37:28.766Z,99823.41
2022-11-20T09:42:36.141Z,99826.16
2022-11-20T09:48:21.186Z,99830.88
2022-11-20T09:53:36.675Z,99820.09
2022-11-20T09:58:44.050Z,99817.78
2022-11-20T10:04:07.314Z,99806.81
2022-11-20T10:09:31.974Z,99806.03
2022-11-20T10:14:57.886Z,99804.13
2022-11-20T10:20:21.353Z,99799.88
2022-11-20T10:25:34.110Z,99784.34
2022-11-20T10:30:41.712Z,99773.88
2022-11-20T10:35:46.209Z,99771.03
2022-11-20T10:40:53.513Z,99780.25
2022-11-20T10:46:10.100Z,99788.25
2022-11-20T10:51:30.100Z,99782.66
2022-11-20T10:56:53.719Z,99776.03
2022-11-20T11:01:55.368Z,99769.28
2022-11-20T11:07:20.820Z,99769.19
2022-11-20T11:12:25.544Z,99758.78
2022-11-20T11:17:30.347Z,99750.94
2022-11-20T11:22:34.386Z,99758.22
2022-11-20T11:27:47.139Z,99749.09
2022-11-20T11:32:49.047Z,99726.00
2022-11-20T11:37:51.999Z,99724.25
2022-11-20T11:43:00.333Z,99729.13
2022-11-20T11:48:04.267Z,99709.47
2022-11-20T11:53:14.420Z,99702.16
2022-11-20T11:58:34.972Z,99694.94
2022-11-20T12:03:38.852Z,99698.13
2022-11-20T12:08:47.936Z,99695.03
2022-11-20T12:14:02.707Z,99686.84
2022-11-20T12:19:09.333Z,99685.25
2022-11-20T12:24:30.644Z,99691.09
2022-11-20T12:30:03.341Z,99691.09
2022-11-20T12:35:23.434Z,99696.94
2022-11-20T12:40:31.044Z,99698.75
2022-11-20T12:45:41.589Z,99693.66
2022-11-20T12:51:14.467Z,99691.16
2022-11-20T12:56:29.172Z,99688.06
2022-11-20T13:01:53.028Z,99681.91
2022-11-20T13:06:55.429Z,99679.25
2022-11-20T13:12:12.149Z,99674.56
2022-11-20T13:17:39.170Z,99675.22
2022-11-20T13:23:00.950Z,99662.47
2022-11-20T13:28:22.485Z,99653.97
2022-11-20T13:33:35.473Z,99656.94
2022-11-20T13:39:07.358Z,99649.91
2022-11-20T13:44:16.523Z,99657.97
2022-11-20T13:49:32.295Z,99650.75
2022-11-20T13:54:55.763Z,99648.03
2022-11-20T14:00:14.667Z,99652.56
2022-11-20T14:05:22.139Z,99659.69
2022-11-20T14:10:33.110Z,99666.16
2022-11-20T14:15:39.251Z,99655.13
2022-11-20T14:20:44.213Z,99662.44
2022-11-20T14:25:46.214Z,99652.34
2022-11-20T14:30:52.142Z,99648.94
2022-11-20T14:35:56.234Z,99660.78
2022-11-20T14:41:20.062Z,99656.06
2022-11-20T14:46:22.079Z,99653.78
2022-11-20T14:51:31.299Z,99650.31
2022-11-20T14:56:32.935Z,99639.25
2022-11-20T15:01:35.047Z,99637.41
2022-11-20T15:06:37.230Z,99639.16
2022-11-20T15:11:38.854Z,99635.84
2022-11-20T15:16:40.685Z,99632.06
2022-11-20T15:21:42.328Z,99637.19
2022-11-20T15:26:44.613Z,99634.84
2022-11-20T15:31:46.500Z,99630.50
2022-11-20T15:36:48.159Z,99626.59
2022-11-20T15:41:49.834Z,99627.16
2022-11-20T15:46:51.702Z,99631.63
2022-11-20T15:51:54.916Z,99633.03
2022-11-20T15:56:56.540Z,99633.13
2022-11-20T16:01:58.335Z,99635.38
2022-11-20T16:07:00.155Z,99634.06
2022-11-20T16:12:01.941Z,99629.72
2022-11-20T16:17:08.552Z,99636.31
2022-11-20T16:22:12.089Z,99637.25
2022-11-20T16:27:13.778Z,99634.16
2022-11-20T16:32:15.416Z,99643.78
2022-11-20T16:37:17.060Z,99654.94
2022-11-20T16:42:18.783Z,99656.72
2022-11-20T16:47:20.435Z,99645.28
2022-11-20T16:52:26.530Z,99653.59
2022-11-20T16:57:29.795Z,99651.50
2022-11-20T17:02:33.787Z,99636.41
2022-11-20T17:07:35.494Z,99641.22
2022-11-20T17:12:37.142Z,99650.63
2022-11-20T17:17:38.787Z,99646.72
2022-11-20T17:22:42.883Z,99631.81
2022-11-20T17:27:44.562Z,99633.69
2022-11-20T17:32:49.054Z,99642.00
2022-11-20T17:37:51.803Z,99629.03
2022-11-20T17:42:53.434Z,99628.94
2022-11-20T17:47:55.136Z,99627.59
2022-11-20T17:52:56.845Z,99623.59
2022-11-20T17:58:03.128Z,99624.53
2022-11-20T18:03:04.808Z,99619.72
2022-11-20T18:08:06.579Z,99606.41
2022-11-20T18:13:08.264Z,99608.28
2022-11-20T18:18:10.124Z,99596.09
2022-11-20T18:23:11.777Z,99598.84
2022-11-20T18:28:13.461Z,99594.41
2022-11-20T18:33:15.146Z,99611.59
2022-11-20T18:38:16.780Z,99604.06
2022-11-20T18:43:39.064Z,99598.31
2022-11-20T18:48:40.835Z,99598.47
2022-11-20T18:53:47.092Z,99594.84
2022-11-20T18:58:49.532Z,99590.94
2022-11-20T19:03:51.174Z,99588.50
2022-11-20T19:08:53.339Z,99586.25
2022-11-20T19:13:55.334Z,99586.72
2022-11-20T19:19:03.217Z,99585.22
2022-11-20T19:24:05.396Z,99579.44
2022-11-20T19:29:07.346Z,99570.00
2022-11-20T19:34:09.269Z,99568.97
2022-11-20T19:39:11.571Z,99558.97
2022-11-20T19:44:15.195Z,99557.09
2022-11-20T19:49:22.853Z,99568.97
2022-11-20T19:54:25.084Z,99564.75
2022-11-20T19:59:30.620Z,99550.63
2022-11-20T20:04:32.399Z,99566.47
2022-11-20T20:09:35.016Z,99546.97
2022-11-20T20:14:36.793Z,99548.94
2022-11-20T20:19:38.496Z,99549.88
2022-11-20T20:24:40.256Z,99540.81
2022-11-20T20:29:42.014Z,99531.28
2022-11-20T20:34:43.753Z,99518.38
2022-11-20T20:39:45.626Z,99532.72
2022-11-20T20:45:05.883Z,99518.94
2022-11-20T20:50:10.589Z,99510.66
2022-11-20T20:55:12.387Z,99512.72
2022-11-20T21:00:14.663Z,99512.16
2022-11-20T21:05:16.527Z,99496.47
2022-11-20T21:10:23.504Z,99494.78
2022-11-20T21:15:25.497Z,99490.72
2022-11-20T21:20:45.446Z,99468.06
2022-11-20T21:25:47.108Z,99452.78
2022-11-20T21:30:49.041Z,99443.25
2022-11-20T21:35:50.706Z,99428.06
2022-11-20T21:40:52.441Z,99420.22
2022-11-20T21:45:56.618Z,99426.34
2022-11-20T21:51:06.967Z,99409.34
2022-11-20T21:56:10.399Z,99386.50
2022-11-20T22:01:20.874Z,99386.50
2022-11-20T22:06:23.537Z,99382.28
2022-11-20T22:11:25.172Z,99385.97
2022-11-20T22:16:27.062Z,99378.59
2022-11-20T22:21:30.193Z,99365.09
2022-11-20T22:26:39.872Z,99360.16
2022-11-20T22:31:42.568Z,99351.66
2022-11-20T22:36:44.673Z,99343.63
2022-11-20T22:41:46.333Z,99343.53
2022-11-20T22:46:47.949Z,99326.81
2022-11-20T22:51:49.591Z,99332.94
2022-11-20T22:56:51.243Z,99321.16
2022-11-20T23:01:53.110Z,99319.28
2022-11-20T23:06:54.743Z,99304.63
2022-11-20T23:11:56.360Z,99306.22
2022-11-20T23:16:58.042Z,99293.59
2022-11-20T23:21:59.686Z,99286.53
2022-11-20T23:27:01.323Z,99270.78
2022-11-20T23:32:02.937Z,99273.22
2022-11-20T23:37:04.564Z,99266.03
2022-11-20T23:42:06.235Z,99259.59
2022-11-20T23:47:07.834Z,99249.75
2022-11-20T23:52:09.514Z,99236.66
2022-11-20T23:57:11.167Z,99224.00
